createdAt,value
2023-01-17T00:01:24.093Z,7.28
2023-01-17T00:03:50.813Z,7.24
2023-01-17T00:06:17.525Z,7.39
2023-01-17T00:08:44.258Z,7.64
2023-01-17T00:11:10.974Z,7.63
2023-01-17T00:13:37.679Z,7.61
2023-01-17T00:16:04.399Z,7.61
2023-01-17T00:18:31.109Z,7.58
2023-01-17T00:20:57.765Z,7.64
2023-01-17T00:23:24.469Z,7.64
2023-01-17T00:25:51.160Z,7.59
2023-01-17T00:28:17.786Z,7.55
2023-01-17T00:30:44.421Z,7.50
2023-01-17T00:33:11.133Z,7.54
2023-01-17T00:35:37.749Z,7.56
2023-01-17T00:38:04.439Z,7.59
2023-01-17T00:40:31.087Z,7.31
2023-01-17T00:42:57.733Z,7.33
2023-01-17T00:45:24.429Z,7.40
2023-01-17T00:47:53.091Z,7.48
2023-01-17T00:50:19.869Z,7.54
2023-01-17T00:52:46.663Z,7.56
2023-01-17T00:55:13.280Z,7.58
2023-01-17T00:57:39.972Z,7.56
2023-01-17T01:00:06.676Z,7.54
2023-01-17T01:02:33.388Z,7.54
2023-01-17T01:05:00.141Z,7.56
2023-01-17T01:07:26.806Z,7.54
2023-01-17T01:09:53.521Z,7.41
2023-01-17T01:12:20.191Z,7.28
2023-01-17T01:14:46.916Z,7.39
2023-01-17T01:17:13.558Z,7.41
2023-01-17T01:19:40.371Z,7.41
2023-01-17T01:22:07.102Z,7.26
2023-01-17T01:24:33.774Z,7.35
2023-01-17T01:27:00.483Z,7.42
2023-01-17T01:29:27.186Z,7.52
2023-01-17T01:31:53.959Z,7.42
2023-01-17T01:34:20.626Z,7.43
2023-01-17T01:36:47.264Z,7.37
2023-01-17T01:39:13.933Z,7.32
2023-01-17T01:41:40.600Z,7.43
2023-01-17T01:44:07.250Z,7.46
2023-01-17T01:46:33.875Z,7.53
2023-01-17T01:49:00.528Z,7.53
2023-01-17T01:51:27.132Z,7.35
2023-01-17T01:53:53.903Z,7.46
2023-01-17T01:56:20.581Z,7.54
2023-01-17T01:58:47.330Z,7.44
2023-01-17T02:01:14.015Z,7.24
2023-01-17T02:03:40.833Z,7.49
2023-01-17T02:06:07.511Z,7.49
2023-01-17T02:08:34.150Z,7.47
2023-01-17T02:11:00.820Z,7.16
2023-01-17T02:13:27.495Z,7.26
2023-01-17T02:15:54.173Z,7.32
2023-01-17T02:18:20.880Z,7.48
2023-01-17T02:20:49.514Z,7.29
2023-01-17T02:23:16.185Z,6.74
2023-01-17T02:25:43.594Z,6.57
2023-01-17T02:28:10.393Z,6.42
2023-01-17T02:30:37.109Z,6.54
2023-01-17T02:33:03.807Z,7.09
2023-01-17T02:35:30.462Z,7.29
2023-01-17T02:37:57.120Z,7.49
2023-01-17T02:40:23.779Z,7.46
2023-01-17T02:42:50.395Z,7.27
2023-01-17T02:45:17.154Z,7.26
2023-01-17T02:47:43.850Z,7.48
2023-01-17T02:50:10.515Z,7.60
2023-01-17T02:52:37.153Z,7.69
2023-01-17T02:55:03.834Z,7.67
2023-01-17T02:57:30.508Z,7.68
2023-01-17T02:59:57.208Z,7.68
2023-01-17T03:02:23.893Z,7.73
2023-01-17T03:04:50.605Z,7.78
2023-01-17T03:07:17.288Z,7.82
2023-01-17T03:09:43.996Z,7.76
2023-01-17T03:12:10.657Z,7.77
2023-01-17T03:14:37.331Z,7.70
2023-01-17T03:17:04.002Z,7.80
2023-01-17T03:19:30.705Z,7.74
2023-01-17T03:21:57.394Z,7.29
2023-01-17T03:24:24.035Z,7.42
2023-01-17T03:26:50.670Z,7.39
2023-01-17T03:29:17.377Z,7.44
2023-01-17T03:31:44.057Z,7.46
2023-01-17T03:34:10.701Z,7.58
2023-01-17T03:36:37.367Z,7.55
2023-01-17T03:39:04.058Z,7.44
2023-01-17T03:41:30.739Z,7.40
2023-01-17T03:43:58.381Z,7.53
2023-01-17T03:46:25.075Z,7.58
2023-01-17T03:48:51.762Z,7.68
2023-01-17T03:51:18.501Z,7.67
2023-01-17T03:53:45.168Z,7.75
2023-01-17T03:56:11.875Z,7.67
2023-01-17T03:58:38.591Z,7.67
2023-01-17T04:01:05.306Z,7.65
2023-01-17T04:03:32.042Z,7.60
2023-01-17T04:05:58.872Z,7.63
2023-01-17T04:08:25.594Z,7.67
2023-01-17T04:10:52.295Z,7.63
2023-01-17T04:13:19.023Z,7.70
2023-01-17T04:15:45.695Z,7.74
2023-01-17T04:18:12.378Z,7.71
2023-01-17T04:20:39.036Z,7.72
2023-01-17T04:23:05.788Z,7.44
2023-01-17T04:25:32.456Z,7.21
2023-01-17T04:27:59.175Z,6.98
2023-01-17T04:30:25.847Z,7.25
2023-01-17T04:32:52.526Z,7.29
2023-01-17T04:35:19.192Z,7.39
2023-01-17T04:37:45.977Z,7.45
2023-01-17T04:40:12.656Z,7.45
2023-01-17T04:42:39.290Z,7.46
2023-01-17T04:45:06.016Z,7.49
2023-01-17T04:47:32.693Z,7.51
2023-01-17T04:49:59.375Z,7.56
2023-01-17T04:52:26.020Z,7.51
2023-01-17T04:54:52.668Z,7.55
2023-01-17T04:57:19.327Z,7.40
2023-01-17T04:59:45.961Z,7.31
2023-01-17T05:02:12.653Z,7.39
2023-01-17T05:04:39.325Z,7.39
2023-01-17T05:07:05.985Z,7.41
2023-01-17T05:09:32.617Z,7.38
2023-01-17T05:11:59.300Z,7.42
2023-01-17T05:14:25.977Z,7.35
2023-01-17T05:16:52.632Z,7.26
2023-01-17T05:19:20.960Z,7.20
2023-01-17T05:21:47.703Z,6.88
2023-01-17T05:24:14.405Z,6.55
2023-01-17T05:26:41.094Z,6.18
2023-01-17T05:29:07.725Z,6.41
2023-01-17T05:31:34.453Z,6.15
2023-01-17T05:34:01.100Z,5.43
2023-01-17T05:36:27.762Z,5.54
2023-01-17T05:38:54.532Z,5.70
2023-01-17T05:41:21.241Z,6.04
2023-01-17T05:43:48.009Z,6.24
2023-01-17T05:46:14.735Z,6.47
2023-01-17T05:48:41.462Z,6.15
2023-01-17T05:51:08.181Z,6.29
2023-01-17T05:53:34.866Z,6.18
2023-01-17T05:56:01.580Z,6.06
2023-01-17T05:58:28.299Z,6.03
2023-01-17T06:00:55.055Z,5.95
2023-01-17T06:03:21.753Z,6.17
2023-01-17T06:05:48.494Z,6.38
2023-01-17T06:08:15.245Z,6.67
2023-01-17T06:10:41.957Z,6.91
2023-01-17T06:13:08.627Z,6.79
2023-01-17T06:15:35.248Z,6.80
2023-01-17T06:18:01.918Z,6.84
2023-01-17T06:20:28.602Z,6.99
2023-01-17T06:22:55.360Z,6.91
2023-01-17T06:25:22.019Z,7.08
2023-01-17T06:27:48.743Z,6.95
2023-01-17T06:30:15.440Z,6.89
2023-01-17T06:32:42.213Z,6.87
2023-01-17T06:35:09.001Z,6.84
2023-01-17T06:37:35.634Z,7.09
2023-01-17T06:40:02.307Z,7.13
2023-01-17T06:42:28.933Z,7.04
2023-01-17T06:44:55.607Z,7.14
2023-01-17T06:47:22.258Z,7.25
2023-01-17T06:49:48.969Z,7.37
2023-01-17T06:52:15.675Z,7.45
2023-01-17T06:54:42.359Z,7.48
2023-01-17T06:57:09.057Z,7.47
2023-01-17T06:59:35.711Z,7.55
2023-01-17T07:02:02.352Z,7.54
2023-01-17T07:04:29.016Z,7.49
2023-01-17T07:06:55.703Z,7.40
2023-01-17T07:09:22.331Z,7.39
2023-01-17T07:11:49.042Z,7.23
2023-01-17T07:14:15.748Z,7.11
2023-01-17T07:16:42.434Z,7.11
2023-01-17T07:19:09.126Z,7.12
2023-01-17T07:21:35.788Z,7.29
2023-01-17T07:24:02.533Z,7.10
2023-01-17T07:26:29.202Z,6.88
2023-01-17T07:28:55.933Z,6.44
2023-01-17T07:31:22.616Z,6.41
2023-01-17T07:33:49.338Z,6.50
2023-01-17T07:36:16.050Z,6.45
2023-01-17T07:38:42.685Z,6.93
2023-01-17T07:41:11.053Z,7.22
2023-01-17T07:43:38.127Z,7.22
2023-01-17T07:46:04.818Z,7.21
2023-01-17T07:48:31.522Z,6.96
2023-01-17T07:50:58.319Z,7.35
2023-01-17T07:53:25.023Z,7.43
2023-01-17T07:55:51.753Z,7.35
2023-01-17T07:58:20.668Z,7.09
2023-01-17T08:00:47.473Z,7.47
2023-01-17T08:03:14.273Z,7.77
2023-01-17T08:05:40.998Z,7.96
2023-01-17T08:08:07.971Z,8.27
2023-01-17T08:10:34.733Z,8.30
2023-01-17T08:13:01.421Z,8.53
2023-01-17T08:15:28.158Z,8.54
2023-01-17T08:17:54.846Z,8.37
2023-01-17T08:20:21.516Z,8.38
2023-01-17T08:22:48.190Z,8.55
2023-01-17T08:25:14.841Z,8.34
2023-01-17T08:27:41.552Z,8.46
2023-01-17T08:30:08.278Z,8.60
2023-01-17T08:32:35.010Z,8.62
2023-01-17T08:35:01.718Z,8.69
2023-01-17T08:37:28.418Z,8.73
2023-01-17T08:39:55.108Z,8.82
2023-01-17T08:42:21.812Z,8.83
2023-01-17T08:44:48.508Z,8.77
2023-01-17T08:47:15.278Z,8.78
2023-01-17T08:49:41.978Z,8.78
2023-01-17T08:52:08.705Z,8.71
2023-01-17T08:54:35.378Z,8.72
2023-01-17T08:57:04.590Z,8.74
2023-01-17T08:59:31.332Z,8.50
2023-01-17T09:02:00.388Z,8.80
2023-01-17T09:04:27.592Z,8.79
2023-01-17T09:06:54.316Z,8.82
2023-01-17T09:09:20.973Z,8.48
2023-01-17T09:11:47.625Z,8.56
2023-01-17T09:14:14.342Z,8.71
2023-01-17T09:16:41.051Z,8.89
2023-01-17T09:19:07.816Z,8.75
2023-01-17T09:21:34.503Z,8.77
2023-01-17T09:24:01.177Z,8.90
2023-01-17T09:26:27.892Z,8.84
2023-01-17T09:28:54.626Z,8.72
2023-01-17T09:31:21.304Z,8.83
2023-01-17T09:33:47.998Z,8.82
2023-01-17T09:36:14.629Z,8.90
2023-01-17T09:38:41.349Z,8.79
2023-01-17T09:41:08.057Z,8.82
2023-01-17T09:43:34.714Z,9.10
2023-01-17T09:46:01.410Z,9.27
2023-01-17T09:48:28.163Z,9.32
2023-01-17T09:50:54.842Z,9.43
2023-01-17T09:53:21.557Z,9.52
2023-01-17T09:55:48.267Z,9.39
2023-01-17T09:58:15.043Z,9.48
2023-01-17T10:00:41.696Z,9.33
2023-01-17T10:03:08.558Z,9.00
2023-01-17T10:05:35.247Z,8.87
2023-01-17T10:08:04.456Z,8.91
2023-01-17T10:10:31.330Z,9.34
2023-01-17T10:12:58.112Z,9.61
2023-01-17T10:15:24.806Z,9.70
2023-01-17T10:17:51.514Z,9.68
2023-01-17T10:20:18.160Z,9.57
2023-01-17T10:22:44.901Z,9.61
2023-01-17T10:25:11.618Z,9.71
2023-01-17T10:27:38.383Z,9.79
2023-01-17T10:30:05.367Z,9.85
2023-01-17T10:32:32.215Z,9.54
2023-01-17T10:34:59.434Z,9.70
2023-01-17T10:37:26.095Z,9.62
2023-01-17T10:39:52.787Z,9.87
2023-01-17T10:42:19.414Z,9.76
2023-01-17T10:44:46.082Z,9.87
2023-01-17T10:47:12.794Z,10.02
2023-01-17T10:49:39.508Z,10.04
2023-01-17T10:52:06.307Z,10.04
2023-01-17T10:54:33.046Z,9.89
2023-01-17T10:56:59.761Z,9.71
2023-01-17T10:59:26.463Z,9.88
2023-01-17T11:01:53.288Z,10.11
2023-01-17T11:04:20.062Z,10.23
2023-01-17T11:06:57.821Z,10.23
2023-01-17T11:09:25.122Z,9.70
2023-01-17T11:11:51.829Z,9.65
2023-01-17T11:14:18.505Z,10.01
2023-01-17T11:16:45.190Z,10.18
2023-01-17T11:19:11.923Z,10.28
2023-01-17T11:21:38.562Z,10.35
2023-01-17T11:24:05.773Z,10.41
2023-01-17T11:26:32.449Z,10.31
2023-01-17T11:28:59.124Z,9.94
2023-01-17T11:31:25.992Z,9.35
2023-01-17T11:33:52.781Z,8.93
2023-01-17T11:36:19.529Z,8.73
2023-01-17T11:38:46.243Z,8.86
2023-01-17T11:41:13.017Z,8.59
2023-01-17T11:43:39.711Z,8.73
2023-01-17T11:46:06.387Z,8.67
2023-01-17T11:48:33.084Z,8.62
2023-01-17T11:50:59.765Z,8.88
2023-01-17T11:53:26.470Z,8.97
2023-01-17T11:55:53.157Z,8.78
2023-01-17T12:14:07.934Z,9.72
2023-01-17T12:16:34.598Z,9.46
2023-01-17T12:19:01.323Z,9.65
2023-01-17T12:21:29.004Z,9.63
2023-01-17T12:23:56.102Z,9.46
2023-01-17T12:26:23.068Z,9.49
2023-01-17T12:28:49.786Z,9.30
2023-01-17T12:31:16.601Z,9.06
2023-01-17T12:33:43.269Z,9.47
2023-01-17T12:36:09.872Z,9.40
2023-01-17T12:38:36.618Z,9.23
2023-01-17T12:41:03.330Z,9.25
2023-01-17T12:43:29.976Z,8.97
2023-01-17T12:45:56.607Z,9.16
2023-01-17T12:48:23.267Z,9.53
2023-01-17T12:50:49.837Z,9.84
2023-01-17T12:53:16.481Z,10.03
2023-01-17T12:55:43.120Z,9.61
2023-01-17T12:58:09.838Z,9.32
2023-01-17T13:00:36.609Z,9.78
2023-01-17T13:03:03.402Z,10.00
2023-01-17T13:05:30.037Z,10.09
2023-01-17T13:07:56.661Z,9.82
2023-01-17T13:10:23.317Z,9.69
2023-01-17T13:12:50.034Z,9.56
2023-01-17T13:15:16.744Z,9.40
2023-01-17T13:17:43.368Z,9.58
2023-01-17T13:20:09.986Z,9.92
2023-01-17T13:22:36.589Z,10.17
2023-01-17T13:25:03.213Z,10.21
2023-01-17T13:27:29.877Z,10.28
2023-01-17T13:29:56.487Z,10.24
2023-01-17T13:32:23.108Z,9.94
2023-01-17T13:34:49.709Z,9.67
2023-01-17T13:37:16.331Z,9.44
2023-01-17T13:39:42.964Z,9.57
2023-01-17T13:42:09.589Z,9.75
2023-01-17T13:44:36.225Z,9.98
2023-01-17T13:47:02.842Z,10.12
2023-01-17T13:49:29.429Z,10.13
2023-01-17T13:51:56.028Z,10.31
2023-01-17T13:54:22.677Z,10.52
2023-01-17T13:56:49.319Z,10.72
2023-01-17T13:59:15.957Z,10.71
2023-01-17T14:01:42.673Z,10.62
2023-01-17T14:04:09.316Z,10.62
2023-01-17T14:06:36.020Z,10.70
2023-01-17T14:09:02.707Z,10.63
2023-01-17T14:11:29.355Z,10.59
2023-01-17T14:13:55.998Z,10.22
2023-01-17T14:16:22.632Z,10.30
2023-01-17T14:18:49.272Z,10.25
2023-01-17T14:21:15.945Z,10.33
2023-01-17T14:23:42.568Z,10.30
2023-01-17T14:26:09.147Z,10.44
2023-01-17T14:28:35.779Z,10.55
2023-01-17T14:31:02.439Z,10.58
2023-01-17T14:33:29.094Z,10.62
2023-01-17T14:35:55.773Z,10.57
2023-01-17T14:38:22.355Z,10.53
2023-01-17T14:40:48.989Z,10.52
2023-01-17T14:43:15.634Z,10.33
2023-01-17T14:45:42.255Z,10.12
2023-01-17T14:48:08.875Z,10.17
2023-01-17T14:50:35.551Z,10.22
2023-01-17T14:53:02.134Z,10.31
2023-01-17T14:55:28.698Z,10.19
2023-01-17T14:57:55.376Z,10.22
2023-01-17T15:00:22.023Z,10.23
2023-01-17T15:02:48.705Z,10.29
2023-01-17T15:05:15.421Z,10.34
2023-01-17T15:07:42.026Z,10.33
2023-01-17T15:10:08.634Z,10.22
2023-01-17T15:12:35.263Z,10.20
2023-01-17T15:15:01.926Z,10.20
2023-01-17T15:17:28.534Z,10.19
2023-01-17T15:19:55.142Z,10.24
2023-01-17T15:22:21.738Z,10.26
2023-01-17T15:24:48.369Z,10.11
2023-01-17T15:27:15.034Z,10.10
2023-01-17T15:29:41.719Z,9.69
2023-01-17T15:32:08.345Z,9.83
2023-01-17T15:34:34.968Z,9.93
2023-01-17T15:37:01.590Z,10.04
2023-01-17T15:39:28.232Z,10.13
2023-01-17T15:41:54.889Z,10.16
2023-01-17T15:44:21.522Z,10.18
2023-01-17T15:46:48.192Z,9.82
2023-01-17T15:49:17.388Z,9.95
2023-01-17T15:51:44.299Z,10.02
2023-01-17T15:54:10.930Z,10.04
2023-01-17T15:56:37.507Z,10.01
2023-01-17T15:59:04.126Z,9.92
2023-01-17T16:01:30.841Z,9.94
2023-01-17T16:03:57.622Z,9.74
2023-01-17T16:06:24.282Z,9.47
2023-01-17T16:08:50.874Z,9.47
2023-01-17T16:11:17.500Z,9.45
2023-01-17T16:13:44.153Z,8.97
2023-01-17T16:16:10.871Z,8.74
2023-01-17T16:18:37.611Z,8.76
2023-01-17T16:21:04.303Z,8.87
2023-01-17T16:23:30.955Z,8.87
2023-01-17T16:25:57.618Z,9.17
2023-01-17T16:28:24.194Z,9.41
2023-01-17T16:30:50.836Z,9.51
2023-01-17T16:33:17.410Z,9.64
2023-01-17T16:35:44.058Z,9.72
2023-01-17T16:38:10.723Z,9.75
2023-01-17T16:40:37.683Z,9.81
2023-01-17T16:43:04.393Z,9.81
2023-01-17T16:45:31.048Z,9.79
2023-01-17T16:47:57.717Z,9.68
2023-01-17T16:50:24.323Z,9.63
2023-01-17T16:52:50.930Z,9.57
2023-01-17T16:55:17.509Z,9.54
2023-01-17T16:57:44.108Z,9.57
2023-01-17T17:00:10.738Z,9.49
2023-01-17T17:02:37.380Z,9.31
2023-01-17T17:05:04.039Z,9.19
2023-01-17T17:07:30.667Z,9.22
2023-01-17T17:09:57.285Z,8.68
2023-01-17T17:12:23.935Z,8.61
2023-01-17T17:14:50.585Z,8.64
2023-01-17T17:17:17.219Z,8.74
2023-01-17T17:19:43.805Z,8.93
2023-01-17T17:22:10.380Z,9.13
2023-01-17T17:24:37.036Z,9.19
2023-01-17T17:27:03.625Z,9.13
2023-01-17T17:29:30.270Z,9.10
2023-01-17T17:31:56.860Z,9.12
2023-01-17T17:34:23.540Z,9.13
2023-01-17T17:36:50.149Z,9.17
2023-01-17T17:39:16.836Z,9.25
2023-01-17T17:41:43.406Z,9.24
2023-01-17T17:44:10.034Z,9.14
2023-01-17T17:46:36.639Z,9.01
2023-01-17T17:49:03.330Z,8.99
2023-01-17T17:51:30.230Z,8.97
2023-01-17T17:53:56.865Z,9.07
2023-01-17T17:56:23.528Z,9.10
2023-01-17T17:58:50.158Z,9.07
2023-01-17T18:01:16.888Z,9.07
2023-01-17T18:03:43.532Z,9.03
2023-01-17T18:06:10.145Z,8.97
2023-01-17T18:08:36.781Z,8.97
2023-01-17T18:11:03.405Z,8.94
2023-01-17T18:13:30.015Z,8.90
2023-01-17T18:15:56.627Z,8.79
2023-01-17T18:18:23.280Z,8.87
2023-01-17T18:20:49.866Z,8.94
2023-01-17T18:23:16.548Z,8.91
2023-01-17T18:25:43.188Z,8.94
2023-01-17T18:28:09.861Z,8.96
2023-01-17T18:30:36.515Z,8.87
2023-01-17T18:33:03.203Z,8.88
2023-01-17T18:35:29.795Z,8.93
2023-01-17T18:37:56.469Z,8.96
2023-01-17T18:40:23.059Z,8.91
2023-01-17T18:42:49.709Z,8.88
2023-01-17T18:45:16.349Z,8.81
2023-01-17T18:47:43.164Z,8.84
2023-01-17T18:50:09.845Z,8.82
2023-01-17T18:52:36.451Z,8.76
2023-01-17T18:55:03.125Z,8.56
2023-01-17T18:57:29.787Z,8.44
2023-01-17T18:59:56.473Z,8.34
2023-01-17T19:02:23.143Z,8.35
2023-01-17T19:04:49.819Z,8.43
2023-01-17T19:07:16.421Z,8.46
2023-01-17T19:09:42.988Z,8.43
2023-01-17T19:12:09.564Z,8.45
2023-01-17T19:14:36.172Z,8.44
2023-01-17T19:17:02.836Z,8.20
2023-01-17T19:19:29.474Z,8.08
2023-01-17T19:21:56.092Z,8.01
2023-01-17T19:24:22.727Z,8.08
2023-01-17T19:26:49.307Z,8.16
2023-01-17T19:29:15.931Z,7.81
2023-01-17T19:31:43.350Z,7.91
2023-01-17T19:34:10.167Z,7.94
2023-01-17T19:36:36.832Z,7.90
2023-01-17T19:39:05.646Z,7.94
2023-01-17T19:41:32.814Z,7.97
2023-01-17T19:43:59.470Z,7.90
2023-01-17T19:46:26.111Z,7.87
2023-01-17T19:48:52.727Z,7.99
2023-01-17T19:51:19.367Z,7.98
2023-01-17T19:53:45.989Z,7.91
2023-01-17T19:56:12.608Z,7.76
2023-01-17T19:58:39.201Z,7.94
2023-01-17T20:01:05.905Z,8.01
2023-01-17T20:03:33.165Z,8.05
2023-01-17T20:05:59.899Z,8.03
2023-01-17T20:08:28.056Z,8.07
2023-01-17T20:10:54.650Z,8.07
2023-01-17T20:13:21.256Z,8.05
2023-01-17T20:15:47.858Z,7.98
2023-01-17T20:18:14.528Z,7.71
2023-01-17T20:20:56.081Z,7.59
2023-01-17T20:23:23.464Z,7.74
2023-01-17T20:25:50.085Z,7.84
2023-01-17T20:28:17.061Z,8.01
2023-01-17T20:30:43.700Z,8.06
2023-01-17T20:33:10.360Z,8.06
2023-01-17T20:35:36.949Z,8.03
2023-01-17T20:38:03.763Z,8.02
2023-01-17T20:40:30.351Z,7.98
2023-01-17T20:42:56.977Z,7.98
2023-01-17T20:45:23.624Z,7.98
2023-01-17T20:47:50.212Z,7.86
2023-01-17T20:50:16.833Z,7.87
2023-01-17T20:52:43.487Z,7.98
2023-01-17T20:55:10.210Z,7.71
2023-01-17T20:57:36.802Z,7.42
2023-01-17T21:00:03.467Z,7.69
2023-01-17T21:02:30.223Z,7.70
2023-01-17T21:04:56.855Z,7.90
2023-01-17T21:07:23.507Z,7.94
2023-01-17T21:09:50.172Z,7.82
2023-01-17T21:12:16.857Z,7.87
2023-01-17T21:14:43.477Z,8.02
2023-01-17T21:17:10.118Z,8.17
2023-01-17T21:19:36.715Z,8.26
2023-01-17T21:22:03.360Z,8.26
2023-01-17T21:24:29.976Z,8.14
2023-01-17T21:26:56.577Z,8.07
2023-01-17T21:29:23.177Z,8.10
2023-01-17T21:31:49.808Z,8.10
2023-01-17T21:34:16.452Z,8.17
2023-01-17T21:36:43.100Z,8.25
2023-01-17T21:39:09.705Z,8.32
2023-01-17T21:41:36.305Z,8.33
2023-01-17T21:44:02.895Z,8.37
2023-01-17T21:46:29.519Z,8.30
2023-01-17T21:48:56.183Z,8.12
2023-01-17T21:51:22.853Z,8.12
2023-01-17T21:53:49.481Z,8.16
2023-01-17T21:56:16.180Z,8.22
2023-01-17T21:58:42.818Z,8.16
2023-01-17T22:01:09.534Z,8.24
2023-01-17T22:03:36.184Z,8.34
2023-01-17T22:06:02.812Z,8.38
2023-01-17T22:08:29.569Z,8.43
2023-01-17T22:10:56.165Z,8.43
2023-01-17T22:13:22.682Z,8.47
2023-01-17T22:15:49.305Z,8.38
2023-01-17T22:18:15.926Z,8.35
2023-01-17T22:20:42.505Z,8.41
2023-01-17T22:23:09.123Z,8.25
2023-01-17T22:25:35.738Z,8.24
2023-01-17T22:28:02.339Z,8.26
2023-01-17T22:30:28.922Z,8.20
2023-01-17T22:32:55.736Z,7.99
2023-01-17T22:35:22.576Z,8.12
2023-01-17T22:37:49.200Z,8.21
2023-01-17T22:40:15.860Z,8.20
2023-01-17T22:42:42.490Z,8.11
2023-01-17T22:45:09.152Z,8.13
2023-01-17T22:47:35.736Z,8.23
2023-01-17T22:50:02.423Z,8.22
2023-01-17T22:52:29.047Z,8.16
2023-01-17T22:54:55.629Z,8.19
2023-01-17T22:57:22.273Z,8.14
2023-01-17T22:59:48.879Z,8.24
2023-01-17T23:02:16.552Z,8.23
2023-01-17T23:04:43.359Z,8.09
2023-01-17T23:07:09.983Z,8.14
2023-01-17T23:09:36.611Z,8.16
2023-01-17T23:12:03.331Z,8.07
2023-01-17T23:14:29.951Z,7.99
2023-01-17T23:16:56.600Z,8.08
2023-01-17T23:19:23.191Z,8.18
2023-01-17T23:21:49.813Z,8.21
2023-01-17T23:24:16.426Z,8.15
2023-01-17T23:26:43.031Z,8.12
2023-01-17T23:29:09.642Z,8.14
2023-01-17T23:31:36.297Z,8.11
2023-01-17T23:34:02.948Z,8.19
2023-01-17T23:36:29.525Z,8.16
2023-01-17T23:38:56.117Z,8.19
2023-01-17T23:41:22.765Z,8.24
2023-01-17T23:43:49.404Z,8.20
2023-01-17T23:46:16.022Z,8.14
2023-01-17T23:48:42.689Z,8.25
2023-01-17T23:51:09.319Z,8.27
2023-01-17T23:53:35.977Z,8.30
2023-01-17T23:56:02.563Z,8.35
2023-01-17T23:58:29.135Z,8.26
